createdAt,value
2022-10-15T00:01:18.806Z,12.71
2022-10-15T00:03:45.558Z,12.69
2022-10-15T00:06:16.564Z,12.74
2022-10-15T00:08:43.353Z,12.73
2022-10-15T00:11:14.045Z,12.73
2022-10-15T00:13:40.527Z,12.72
2022-10-15T00:16:12.750Z,12.71
2022-10-15T00:18:39.651Z,12.71
2022-10-15T00:21:07.774Z,12.73
2022-10-15T00:23:34.318Z,12.70
2022-10-15T00:26:01.584Z,12.71
2022-10-15T00:28:31.878Z,12.73
2022-10-15T00:31:05.020Z,12.71
2022-10-15T00:33:31.495Z,12.66
2022-10-15T00:36:05.928Z,12.65
2022-10-15T00:38:32.378Z,12.63
2022-10-15T00:40:59.373Z,12.65
2022-10-15T00:43:39.152Z,12.63
2022-10-15T00:46:06.640Z,12.62
2022-10-15T00:48:33.148Z,12.59
2022-10-15T00:51:04.189Z,12.59
2022-10-15T00:53:30.819Z,12.58
2022-10-15T00:55:58.230Z,12.57
2022-10-15T00:58:28.390Z,12.53
2022-10-15T01:00:55.377Z,12.54
2022-10-15T01:03:22.018Z,12.51
2022-10-15T01:05:49.515Z,12.50
2022-10-15T01:08:16.226Z,12.49
2022-10-15T01:10:42.604Z,12.50
2022-10-15T01:13:21.114Z,12.49
2022-10-15T01:15:57.277Z,12.46
2022-10-15T01:18:28.400Z,12.47
2022-10-15T01:21:00.888Z,12.43
2022-10-15T01:23:30.369Z,12.45
2022-10-15T01:26:15.524Z,12.43
2022-10-15T01:28:48.398Z,12.44
2022-10-15T01:31:38.025Z,12.42
2022-10-15T01:34:10.382Z,12.40
2022-10-15T01:36:42.656Z,12.39
2022-10-15T01:39:27.621Z,12.40
2022-10-15T01:42:01.019Z,12.40
2022-10-15T01:44:34.636Z,12.37
2022-10-15T01:47:05.149Z,12.36
2022-10-15T01:49:33.521Z,12.36
2022-10-15T01:52:01.919Z,12.35
2022-10-15T01:54:28.490Z,12.36
2022-10-15T01:56:56.167Z,12.34
2022-10-15T01:59:24.536Z,12.37
2022-10-15T02:01:51.063Z,12.33
2022-10-15T02:04:18.600Z,12.34
2022-10-15T02:06:46.878Z,12.34
2022-10-15T02:09:36.546Z,12.37
2022-10-15T02:12:05.800Z,12.35
2022-10-15T02:14:38.530Z,12.36
2022-10-15T02:17:11.878Z,12.35
2022-10-15T02:19:49.356Z,12.35
2022-10-15T02:22:15.777Z,12.35
2022-10-15T02:24:55.999Z,12.34
2022-10-15T02:27:22.924Z,12.34
2022-10-15T02:29:50.609Z,12.34
2022-10-15T02:32:19.293Z,12.35
2022-10-15T02:34:46.230Z,12.35
2022-10-15T02:37:13.024Z,12.35
2022-10-15T02:39:39.458Z,12.36
2022-10-15T02:42:06.468Z,12.33
2022-10-15T02:44:32.891Z,12.35
2022-10-15T02:47:00.087Z,12.36
2022-10-15T02:49:26.529Z,12.36
2022-10-15T02:51:53.715Z,12.33
2022-10-15T02:54:20.304Z,12.33
2022-10-15T02:56:46.738Z,12.38
2022-10-15T02:59:13.157Z,12.36
2022-10-15T03:01:39.587Z,12.33
2022-10-15T03:04:06.078Z,12.33
2022-10-15T03:06:32.566Z,12.30
2022-10-15T03:08:59.469Z,12.31
2022-10-15T03:11:25.893Z,12.29
2022-10-15T03:13:52.529Z,12.29
2022-10-15T03:16:19.169Z,12.29
2022-10-15T03:18:45.604Z,12.28
2022-10-15T03:21:12.041Z,12.29
2022-10-15T03:23:38.466Z,12.27
2022-10-15T03:26:05.070Z,12.27
2022-10-15T03:28:31.521Z,12.26
2022-10-15T03:30:57.984Z,12.25
2022-10-15T03:33:25.311Z,12.26
2022-10-15T03:35:52.753Z,12.26
2022-10-15T03:38:19.316Z,12.28
2022-10-15T03:40:45.783Z,12.25
2022-10-15T03:43:12.235Z,12.28
2022-10-15T03:45:38.665Z,12.26
2022-10-15T03:48:05.367Z,12.24
2022-10-15T03:50:31.861Z,12.23
2022-10-15T03:52:58.366Z,12.23
2022-10-15T03:55:24.799Z,12.24
2022-10-15T03:57:51.260Z,12.24
2022-10-15T04:00:17.651Z,12.23
2022-10-15T04:02:44.040Z,12.24
2022-10-15T04:05:10.531Z,12.26
2022-10-15T04:07:36.994Z,12.26
2022-10-15T04:10:03.587Z,12.29
2022-10-15T04:12:30.034Z,12.30
2022-10-15T04:14:56.463Z,12.29
2022-10-15T04:17:22.927Z,12.28
2022-10-15T04:19:49.352Z,12.27
2022-10-15T04:22:15.743Z,12.27
2022-10-15T04:24:42.184Z,12.30
2022-10-15T04:27:08.789Z,12.30
2022-10-15T04:29:35.338Z,12.29
2022-10-15T04:32:02.005Z,12.32
2022-10-15T04:34:28.480Z,12.30
2022-10-15T04:36:54.931Z,12.28
2022-10-15T04:39:21.607Z,12.27
2022-10-15T04:41:48.605Z,12.27
2022-10-15T04:44:15.232Z,12.24
2022-10-15T04:46:41.751Z,12.25
2022-10-15T04:49:08.270Z,12.26
2022-10-15T04:51:34.642Z,12.25
2022-10-15T04:54:01.844Z,12.24
2022-10-15T04:56:28.239Z,12.24
2022-10-15T04:58:54.649Z,12.23
2022-10-15T05:01:21.401Z,12.29
2022-10-15T05:03:48.569Z,12.23
2022-10-15T05:06:19.771Z,12.22
2022-10-15T05:08:46.779Z,12.26
2022-10-15T05:11:17.884Z,12.27
2022-10-15T05:13:44.710Z,12.25
2022-10-15T05:16:17.392Z,12.23
2022-10-15T05:18:46.102Z,12.22
2022-10-15T05:21:12.912Z,12.21
2022-10-15T05:23:39.400Z,12.19
2022-10-15T05:26:07.286Z,12.21
2022-10-15T05:28:33.891Z,12.19
2022-10-15T05:31:07.439Z,12.20
2022-10-15T05:33:34.343Z,12.19
2022-10-15T05:36:11.043Z,12.19
2022-10-15T05:38:37.680Z,12.21
2022-10-15T05:41:04.264Z,12.20
2022-10-15T05:43:30.654Z,12.20
2022-10-15T05:45:57.255Z,12.22
2022-10-15T05:48:23.698Z,12.22
2022-10-15T05:50:50.121Z,12.21
2022-10-15T05:53:16.565Z,12.24
2022-10-15T05:55:43.054Z,12.22
2022-10-15T05:58:09.464Z,12.20
2022-10-15T06:00:36.376Z,12.20
2022-10-15T06:03:02.806Z,12.21
2022-10-15T06:05:29.332Z,12.23
2022-10-15T06:07:56.647Z,12.22
2022-10-15T06:10:23.580Z,12.20
2022-10-15T06:12:50.842Z,12.21
2022-10-15T06:15:18.429Z,12.21
2022-10-15T06:17:45.046Z,12.21
2022-10-15T06:20:12.156Z,12.24
2022-10-15T06:22:38.712Z,12.24
2022-10-15T06:25:05.326Z,12.26
2022-10-15T06:27:33.757Z,12.27
2022-10-15T06:30:00.155Z,12.30
2022-10-15T06:32:26.546Z,12.34
2022-10-15T06:34:53.091Z,12.37
2022-10-15T06:37:19.474Z,12.45
2022-10-15T06:39:46.779Z,12.48
2022-10-15T06:42:13.227Z,12.53
2022-10-15T06:44:39.958Z,12.58
2022-10-15T06:47:06.962Z,12.63
2022-10-15T06:49:33.547Z,12.65
2022-10-15T06:52:03.426Z,12.68
2022-10-15T06:54:30.375Z,12.73
2022-10-15T06:56:56.850Z,12.77
2022-10-15T06:59:23.470Z,12.82
2022-10-15T07:01:49.964Z,12.83
2022-10-15T07:04:16.354Z,12.85
2022-10-15T07:06:42.902Z,12.91
2022-10-15T07:09:09.370Z,12.94
2022-10-15T07:11:35.835Z,12.99
2022-10-15T07:14:02.617Z,13.00
2022-10-15T07:16:29.069Z,13.03
2022-10-15T07:18:55.455Z,13.02
2022-10-15T07:21:21.946Z,13.05
2022-10-15T07:23:48.418Z,13.04
2022-10-15T07:26:14.898Z,13.06
2022-10-15T07:28:41.459Z,13.13
2022-10-15T07:31:07.961Z,13.15
2022-10-15T07:33:34.898Z,13.16
2022-10-15T07:36:05.651Z,13.18
2022-10-15T07:38:32.417Z,13.22
2022-10-15T07:40:59.724Z,13.30
2022-10-15T07:43:26.293Z,13.40
2022-10-15T07:45:52.892Z,13.49
2022-10-15T07:48:19.529Z,13.61
2022-10-15T07:50:46.068Z,13.70
2022-10-15T07:53:12.602Z,13.80
2022-10-15T07:55:39.259Z,13.91
2022-10-15T07:58:08.261Z,13.97
2022-10-15T08:00:34.805Z,14.10
2022-10-15T08:03:01.408Z,14.22
2022-10-15T08:05:27.844Z,14.29
2022-10-15T08:07:54.485Z,14.31
2022-10-15T08:10:21.051Z,14.32
2022-10-15T08:12:47.608Z,14.33
2022-10-15T08:15:15.462Z,14.29
2022-10-15T08:17:41.936Z,14.34
2022-10-15T08:20:08.593Z,14.30
2022-10-15T08:22:35.219Z,14.29
2022-10-15T08:25:01.826Z,14.31
2022-10-15T08:27:28.353Z,14.33
2022-10-15T08:29:54.785Z,14.32
2022-10-15T08:32:21.483Z,14.35
2022-10-15T08:34:48.125Z,14.39
2022-10-15T08:39:46.876Z,14.62
2022-10-15T08:42:22.733Z,14.72
2022-10-15T08:44:56.889Z,14.86
2022-10-15T08:47:30.262Z,14.98
2022-10-15T08:49:58.435Z,15.08
2022-10-15T08:52:24.811Z,15.24
2022-10-15T08:54:51.697Z,15.32
2022-10-15T08:57:38.836Z,15.38
2022-10-15T09:00:25.652Z,15.40
2022-10-15T09:03:10.932Z,15.45
2022-10-15T09:06:12.749Z,15.43
2022-10-15T09:08:44.915Z,15.42
2022-10-15T09:11:14.173Z,15.34
2022-10-15T09:13:41.871Z,15.30
2022-10-15T09:16:11.122Z,15.26
2022-10-15T09:18:38.162Z,15.25
2022-10-15T09:21:05.407Z,15.29
2022-10-15T09:23:33.141Z,15.41
2022-10-15T09:26:07.550Z,15.54
2022-10-15T09:28:43.188Z,15.65
2022-10-15T09:31:11.697Z,15.64
2022-10-15T09:33:43.074Z,15.68
2022-10-15T09:36:12.713Z,15.65
2022-10-15T09:38:39.123Z,15.64
2022-10-15T09:41:05.583Z,15.59
2022-10-15T09:43:36.063Z,15.52
2022-10-15T09:46:03.413Z,15.47
2022-10-15T09:48:36.820Z,15.47
2022-10-15T09:51:06.330Z,15.46
2022-10-15T09:53:41.725Z,15.46
2022-10-15T09:56:24.273Z,15.40
2022-10-15T09:58:55.370Z,15.40
2022-10-15T10:01:23.314Z,15.39
2022-10-15T10:04:09.783Z,15.42
2022-10-15T10:06:48.083Z,15.45
2022-10-15T10:09:17.508Z,15.52
2022-10-15T10:11:54.977Z,15.58
2022-10-15T10:14:23.896Z,15.69
2022-10-15T10:17:07.618Z,15.70
2022-10-15T10:19:34.095Z,15.76
2022-10-15T10:22:12.909Z,15.83
2022-10-15T10:24:39.520Z,15.90
2022-10-15T10:27:17.342Z,15.97
2022-10-15T10:29:48.307Z,16.09
2022-10-15T10:32:20.445Z,16.14
2022-10-15T10:34:52.213Z,16.19
2022-10-15T10:37:19.578Z,16.16
2022-10-15T10:39:51.680Z,16.16
2022-10-15T10:42:18.595Z,16.05
2022-10-15T10:44:46.763Z,16.02
2022-10-15T10:47:16.011Z,16.05
2022-10-15T10:49:45.442Z,16.12
2022-10-15T10:52:27.172Z,16.17
2022-10-15T10:55:12.104Z,16.24
2022-10-15T10:57:41.659Z,16.21
2022-10-15T11:00:12.052Z,16.26
2022-10-15T11:02:41.607Z,16.22
2022-10-15T11:05:08.244Z,16.13
2022-10-15T11:07:43.507Z,16.12
2022-10-15T11:10:21.884Z,16.08
2022-10-15T11:12:53.627Z,15.87
2022-10-15T11:15:20.024Z,15.78
2022-10-15T11:17:59.542Z,15.74
2022-10-15T11:20:45.583Z,15.70
2022-10-15T11:23:36.460Z,15.74
2022-10-15T11:26:18.897Z,15.74
2022-10-15T11:29:08.445Z,15.79
2022-10-15T11:31:49.336Z,15.85
2022-10-15T11:34:41.345Z,15.89
2022-10-15T11:37:17.195Z,15.97
2022-10-15T11:39:43.585Z,16.04
2022-10-15T11:42:22.546Z,16.02
2022-10-15T11:44:55.177Z,16.05
2022-10-15T11:47:21.620Z,16.13
2022-10-15T11:50:06.906Z,16.19
2022-10-15T11:52:45.677Z,16.26
2022-10-15T11:55:12.476Z,16.33
2022-10-15T11:57:40.324Z,16.38
2022-10-15T12:00:07.114Z,16.45
2022-10-15T12:02:37.910Z,16.52
2022-10-15T12:05:06.585Z,16.53
2022-10-15T12:07:49.548Z,16.62
2022-10-15T12:10:29.216Z,16.74
2022-10-15T12:13:14.159Z,16.72
2022-10-15T12:15:52.815Z,16.76
2022-10-15T12:18:34.611Z,16.85
2022-10-15T12:21:01.212Z,16.89
2022-10-15T12:23:36.851Z,16.92
2022-10-15T12:26:23.210Z,16.96
2022-10-15T12:28:54.079Z,16.97
2022-10-15T12:31:20.905Z,17.02
2022-10-15T12:33:49.627Z,17.04
2022-10-15T12:36:18.784Z,17.07
2022-10-15T12:39:27.877Z,17.09
2022-10-15T12:42:01.701Z,17.11
2022-10-15T12:44:30.432Z,17.15
2022-10-15T12:46:57.439Z,17.15
2022-10-15T12:49:26.983Z,17.13
2022-10-15T12:51:56.358Z,17.16
2022-10-15T12:54:35.280Z,17.10
2022-10-15T12:57:04.868Z,17.10
2022-10-15T12:59:51.284Z,17.17
2022-10-15T13:02:36.000Z,17.21
2022-10-15T13:05:02.884Z,17.15
2022-10-15T13:07:29.385Z,17.16
2022-10-15T13:09:56.076Z,17.10
2022-10-15T13:12:25.944Z,17.09
2022-10-15T13:14:59.495Z,17.15
2022-10-15T13:17:26.293Z,17.32
2022-10-15T13:20:07.879Z,17.52
2022-10-15T13:22:35.979Z,17.51
2022-10-15T13:25:02.714Z,17.47
2022-10-15T13:27:37.998Z,17.44
2022-10-15T13:30:04.518Z,17.56
2022-10-15T13:32:32.159Z,17.67
2022-10-15T13:34:59.713Z,17.81
2022-10-15T13:37:35.867Z,17.90
2022-10-15T13:40:07.536Z,17.98
2022-10-15T13:42:34.805Z,18.09
2022-10-15T13:45:04.439Z,18.08
2022-10-15T13:47:35.417Z,17.95
2022-10-15T13:50:31.016Z,17.79
2022-10-15T13:52:59.320Z,17.60
2022-10-15T13:55:28.553Z,17.49
2022-10-15T13:58:02.214Z,17.38
2022-10-15T14:00:33.587Z,17.29
2022-10-15T14:03:26.842Z,17.27
2022-10-15T14:05:54.025Z,17.26
2022-10-15T14:08:38.367Z,17.24
2022-10-15T14:11:04.831Z,17.25
2022-10-15T14:13:31.520Z,17.21
2022-10-15T14:16:16.432Z,17.29
2022-10-15T14:18:49.494Z,17.34
2022-10-15T14:21:18.339Z,17.33
2022-10-15T14:23:45.707Z,17.36
2022-10-15T14:26:13.025Z,17.35
2022-10-15T14:28:40.112Z,17.39
2022-10-15T14:31:07.655Z,17.45
2022-10-15T14:33:37.146Z,17.42
2022-10-15T14:36:14.635Z,17.44
2022-10-15T14:38:42.103Z,17.54
2022-10-15T14:41:23.665Z,17.55
2022-10-15T14:44:02.271Z,17.65
2022-10-15T14:46:35.591Z,17.73
2022-10-15T14:49:02.363Z,17.78
2022-10-15T14:51:28.828Z,17.83
2022-10-15T14:53:55.639Z,17.85
2022-10-15T14:56:24.102Z,17.83
2022-10-15T14:58:53.250Z,17.87
2022-10-15T15:01:20.636Z,17.96
2022-10-15T15:03:51.909Z,17.94
2022-10-15T15:06:18.671Z,17.96
2022-10-15T15:08:45.547Z,17.93
2022-10-15T15:11:19.490Z,17.89
2022-10-15T15:13:48.026Z,17.85
2022-10-15T15:16:15.842Z,17.89
2022-10-15T15:18:43.930Z,17.83
2022-10-15T15:21:14.865Z,17.83
2022-10-15T15:23:41.532Z,17.79
2022-10-15T15:26:07.912Z,17.67
2022-10-15T15:28:34.385Z,17.67
2022-10-15T15:31:02.485Z,17.61
2022-10-15T15:33:29.037Z,17.56
2022-10-15T15:36:00.342Z,17.47
2022-10-15T15:38:30.995Z,17.32
2022-10-15T15:41:01.807Z,17.18
2022-10-15T15:43:28.467Z,17.04
2022-10-15T15:45:54.987Z,16.89
2022-10-15T15:48:21.363Z,16.79
2022-10-15T15:50:48.058Z,16.73
2022-10-15T15:53:14.591Z,16.68
2022-10-15T15:55:41.006Z,16.62
2022-10-15T15:58:07.598Z,16.55
2022-10-15T16:00:34.000Z,16.50
2022-10-15T16:03:00.433Z,16.44
2022-10-15T16:05:26.954Z,16.36
2022-10-15T16:07:53.336Z,16.29
2022-10-15T16:10:19.879Z,16.21
2022-10-15T16:12:46.308Z,16.13
2022-10-15T16:15:14.729Z,16.06
2022-10-15T16:17:42.075Z,15.92
2022-10-15T16:20:08.835Z,15.86
2022-10-15T16:22:35.331Z,15.77
2022-10-15T16:25:01.760Z,15.79
2022-10-15T16:27:28.547Z,15.84
2022-10-15T16:29:55.120Z,15.71
2022-10-15T16:32:21.578Z,15.63
2022-10-15T16:34:48.031Z,15.57
2022-10-15T16:37:14.418Z,15.59
2022-10-15T16:39:40.963Z,15.64
2022-10-15T16:42:08.482Z,15.89
2022-10-15T16:44:35.118Z,15.91
2022-10-15T16:47:01.568Z,15.93
2022-10-15T16:49:28.079Z,15.87
2022-10-15T16:51:54.506Z,15.80
2022-10-15T16:54:21.501Z,15.75
2022-10-15T16:56:50.557Z,15.70
2022-10-15T16:59:19.589Z,15.65
2022-10-15T17:01:45.997Z,15.62
2022-10-15T17:04:12.657Z,15.57
2022-10-15T17:06:39.042Z,15.54
2022-10-15T17:09:05.478Z,15.52
2022-10-15T17:11:34.749Z,15.51
2022-10-15T17:14:03.713Z,15.47
2022-10-15T17:16:31.928Z,15.45
2022-10-15T17:18:58.550Z,15.45
2022-10-15T17:21:26.676Z,15.43
2022-10-15T17:23:54.116Z,15.44
2022-10-15T17:26:22.218Z,15.41
2022-10-15T17:28:49.258Z,15.46
2022-10-15T17:31:17.767Z,15.48
2022-10-15T17:33:44.916Z,15.48
2022-10-15T17:36:15.751Z,15.48
2022-10-15T17:38:42.280Z,15.51
2022-10-15T17:41:13.487Z,15.44
2022-10-15T17:43:40.389Z,15.36
2022-10-15T17:46:11.506Z,15.30
2022-10-15T17:48:39.331Z,15.25
2022-10-15T17:51:11.035Z,15.19
2022-10-15T17:53:37.560Z,15.11
2022-10-15T17:56:14.775Z,15.00
2022-10-15T17:58:41.396Z,14.93
2022-10-15T18:01:12.051Z,14.86
2022-10-15T18:03:38.609Z,14.75
2022-10-15T18:06:15.324Z,14.67
2022-10-15T18:08:41.997Z,14.60
2022-10-15T18:11:09.002Z,14.53
2022-10-15T18:13:35.557Z,14.46
2022-10-15T18:16:02.154Z,14.36
2022-10-15T18:18:28.724Z,14.29
2022-10-15T18:20:55.458Z,14.26
2022-10-15T18:23:22.495Z,14.19
2022-10-15T18:25:48.942Z,14.12
2022-10-15T18:28:15.369Z,14.12
2022-10-15T18:30:42.334Z,14.10
2022-10-15T18:33:10.696Z,14.08
2022-10-15T18:35:38.481Z,14.04
2022-10-15T18:38:05.194Z,13.98
2022-10-15T18:40:33.591Z,13.96
2022-10-15T18:43:03.021Z,13.89
2022-10-15T18:45:29.492Z,13.86
2022-10-15T18:47:55.999Z,13.83
2022-10-15T18:50:22.678Z,13.81
2022-10-15T18:52:49.131Z,13.79
2022-10-15T18:55:15.673Z,13.77
2022-10-15T18:57:42.434Z,13.72
2022-10-15T19:00:09.182Z,13.67
2022-10-15T19:02:35.600Z,13.80
2022-10-15T19:05:02.085Z,13.87
2022-10-15T19:07:31.638Z,13.77
2022-10-15T19:09:58.274Z,13.75
2022-10-15T19:12:24.849Z,13.72
2022-10-15T19:14:51.422Z,13.71
2022-10-15T19:17:17.910Z,13.70
2022-10-15T19:19:49.792Z,13.68
2022-10-15T19:22:16.852Z,13.68
2022-10-15T19:24:43.268Z,13.66
2022-10-15T19:29:41.282Z,13.71
2022-10-15T19:32:08.030Z,13.74
2022-10-15T19:34:37.414Z,13.70
2022-10-15T19:37:03.951Z,13.68
2022-10-15T19:39:32.721Z,13.69
2022-10-15T19:41:59.201Z,13.67
2022-10-15T19:44:27.571Z,13.65
2022-10-15T19:46:54.685Z,13.68
2022-10-15T19:49:21.332Z,13.67
2022-10-15T19:51:48.573Z,13.63
2022-10-15T19:54:15.783Z,13.64
2022-10-15T19:56:42.239Z,13.72
2022-10-15T19:59:10.049Z,13.72
2022-10-15T20:01:36.512Z,13.68
2022-10-15T20:04:06.148Z,13.69
2022-10-15T20:06:33.786Z,13.69
2022-10-15T20:09:02.088Z,13.69
2022-10-15T20:11:28.544Z,13.68
2022-10-15T20:13:55.004Z,13.70
2022-10-15T20:16:23.268Z,13.75
2022-10-15T20:18:50.700Z,13.78
2022-10-15T20:21:17.588Z,13.81
2022-10-15T20:23:45.062Z,13.86
2022-10-15T20:26:13.762Z,13.88
2022-10-15T20:28:41.612Z,13.93
2022-10-15T20:31:09.288Z,13.95
2022-10-15T20:33:36.496Z,13.97
2022-10-15T20:36:03.960Z,13.97
2022-10-15T20:38:30.348Z,13.98
2022-10-15T20:40:56.786Z,13.98
2022-10-15T20:43:23.724Z,13.96
2022-10-15T20:45:50.298Z,13.95
2022-10-15T20:48:20.076Z,13.92
2022-10-15T20:50:47.610Z,13.92
2022-10-15T20:53:14.295Z,13.90
2022-10-15T20:55:40.767Z,13.87
2022-10-15T20:58:07.343Z,13.85
2022-10-15T21:00:33.840Z,13.84
2022-10-15T21:03:00.218Z,13.84
2022-10-15T21:05:26.653Z,13.83
2022-10-15T21:07:53.047Z,13.85
2022-10-15T21:10:19.550Z,13.85
2022-10-15T21:12:45.942Z,13.83
2022-10-15T21:15:12.377Z,13.81
2022-10-15T21:17:38.806Z,13.81
2022-10-15T21:20:05.597Z,13.78
2022-10-15T21:22:31.962Z,13.76
2022-10-15T21:24:58.384Z,13.79
2022-10-15T21:27:24.898Z,13.78
2022-10-15T21:29:51.538Z,13.78
2022-10-15T21:32:17.929Z,13.78
2022-10-15T21:34:44.437Z,13.79
2022-10-15T21:37:11.321Z,13.81
2022-10-15T21:39:37.804Z,13.81
2022-10-15T21:42:04.251Z,13.81
2022-10-15T21:44:30.672Z,13.82
2022-10-15T21:46:57.123Z,13.84
2022-10-15T21:49:23.611Z,13.85
2022-10-15T21:51:50.051Z,13.85
2022-10-15T21:54:16.456Z,13.91
2022-10-15T21:56:42.858Z,13.88
2022-10-15T21:59:09.384Z,13.90
2022-10-15T22:01:37.918Z,14.00
2022-10-15T22:04:08.539Z,14.06
2022-10-15T22:06:35.551Z,14.11
2022-10-15T22:09:02.815Z,14.12
2022-10-15T22:11:30.447Z,14.09
2022-10-15T22:13:58.137Z,14.07
2022-10-15T22:16:25.160Z,14.07
2022-10-15T22:18:51.948Z,14.08
2022-10-15T22:21:19.834Z,14.08
2022-10-15T22:23:47.932Z,14.04
2022-10-15T22:26:14.896Z,14.06
2022-10-15T22:28:41.987Z,14.08
2022-10-15T22:31:10.144Z,14.13
2022-10-15T22:33:36.657Z,14.14
2022-10-15T22:36:07.556Z,14.13
2022-10-15T22:38:33.968Z,14.11
2022-10-15T22:41:01.516Z,14.13
2022-10-15T22:43:27.931Z,14.16
2022-10-15T22:45:58.814Z,14.16
2022-10-15T22:48:25.261Z,14.18
2022-10-15T22:50:58.413Z,14.20
2022-10-15T22:53:25.228Z,14.20
2022-10-15T22:56:14.992Z,14.22
2022-10-15T22:58:41.604Z,14.25
2022-10-15T23:01:13.840Z,14.25
2022-10-15T23:03:41.840Z,14.26
2022-10-15T23:06:08.487Z,14.23
2022-10-15T23:08:34.970Z,14.20
2022-10-15T23:11:09.345Z,14.16
2022-10-15T23:13:36.619Z,14.12
2022-10-15T23:16:22.610Z,14.06
2022-10-15T23:18:52.871Z,13.99
2022-10-15T23:21:22.387Z,13.94
2022-10-15T23:23:48.810Z,13.91
2022-10-15T23:26:16.274Z,13.87
2022-10-15T23:28:43.404Z,13.84
2022-10-15T23:31:20.469Z,13.84
2022-10-15T23:33:47.242Z,13.82
2022-10-15T23:36:14.216Z,13.84
2022-10-15T23:38:40.683Z,13.83
2022-10-15T23:41:08.386Z,13.81
2022-10-15T23:43:34.799Z,13.81
2022-10-15T23:46:01.229Z,13.80
2022-10-15T23:48:28.157Z,13.77
2022-10-15T23:50:59.262Z,13.73
2022-10-15T23:53:28.987Z,13.72
2022-10-15T23:55:55.368Z,13.72
2022-10-15T23:58:21.805Z,13.75
